sensor_id;sensor_type;location;lat;lon;timestamp;pressure;altitude;pressure_sealevel;temperature;humidity
11912;BME280;6016;41.928;25.556;2023-02-27T00:00:13;98398.41;;;14.58;74.82
11912;BME280;6016;41.928;25.556;2023-02-27T00:02:41;98526.41;;;15.28;74.47
11912;BME280;6016;41.928;25.556;2023-02-27T00:05:09;98517.56;;;15.06;76.16
11912;BME280;6016;41.928;25.556;2023-02-27T00:07:36;98522.94;;;14.98;76.28
11912;BME280;6016;41.928;25.556;2023-02-27T00:10:04;98488.44;;;14.83;75.48
11912;BME280;6016;41.928;25.556;2023-02-27T00:12:33;98493.81;;;14.74;76.25
11912;BME280;6016;41.928;25.556;2023-02-27T00:15:03;98465.97;;;14.70;76.06
11912;BME280;6016;41.928;25.556;2023-02-27T00:17:30;98447.91;;;14.51;76.22
11912;BME280;6016;41.928;25.556;2023-02-27T00:19:57;98485.22;;;14.72;75.37
11912;BME280;6016;41.928;25.556;2023-02-27T00:22:24;98542.56;;;15.12;75.93
11912;BME280;6016;41.928;25.556;2023-02-27T00:24:51;98479.75;;;14.51;77.95
11912;BME280;6016;41.928;25.556;2023-02-27T00:27:17;98509.25;;;14.71;77.59
11912;BME280;6016;41.928;25.556;2023-02-27T00:29:46;98551.81;;;15.01;77.59
11912;BME280;6016;41.928;25.556;2023-02-27T00:32:12;98435.41;;;14.21;77.52
11912;BME280;6016;41.928;25.556;2023-02-27T00:34:39;98515.31;;;14.65;78.04
11912;BME280;6016;41.928;25.556;2023-02-27T00:37:06;98490.22;;;14.52;77.34
11912;BME280;6016;41.928;25.556;2023-02-27T00:39:34;98529.22;;;14.67;78.83
11912;BME280;6016;41.928;25.556;2023-02-27T00:42:00;98518.31;;;14.61;79.72
11912;BME280;6016;41.928;25.556;2023-02-27T00:44:27;98539.69;;;14.83;79.38
11912;BME280;6016;41.928;25.556;2023-02-27T00:46:55;98524.88;;;14.74;79.45
11912;BME280;6016;41.928;25.556;2023-02-27T00:49:22;98488.34;;;14.38;79.95
11912;BME280;6016;41.928;25.556;2023-02-27T00:51:49;98507.88;;;14.60;79.97
11912;BME280;6016;41.928;25.556;2023-02-27T00:54:16;98478.06;;;14.34;79.89
11912;BME280;6016;41.928;25.556;2023-02-27T00:56:43;98535.81;;;14.71;80.63
11912;BME280;6016;41.928;25.556;2023-02-27T00:59:10;98541.81;;;14.73;80.75
11912;BME280;6016;41.928;25.556;2023-02-27T01:01:37;98529.84;;;14.69;81.04
11912;BME280;6016;41.928;25.556;2023-02-27T01:04:06;98519.97;;;14.62;80.42
11912;BME280;6016;41.928;25.556;2023-02-27T01:06:32;98527.97;;;14.77;80.20
11912;BME280;6016;41.928;25.556;2023-02-27T01:08:59;98526.38;;;14.68;80.72
11912;BME280;6016;41.928;25.556;2023-02-27T01:11:26;98525.72;;;14.66;80.72
11912;BME280;6016;41.928;25.556;2023-02-27T01:13:53;98522.84;;;14.76;79.76
11912;BME280;6016;41.928;25.556;2023-02-27T01:16:20;98527.34;;;14.75;79.75
11912;BME280;6016;41.928;25.556;2023-02-27T01:18:47;98514.13;;;14.67;79.39
11912;BME280;6016;41.928;25.556;2023-02-27T01:21:15;98470.00;;;14.28;79.32
11912;BME280;6016;41.928;25.556;2023-02-27T01:23:42;98480.50;;;14.21;80.13
11912;BME280;6016;41.928;25.556;2023-02-27T01:26:09;98543.13;;;14.69;79.62
11912;BME280;6016;41.928;25.556;2023-02-27T01:28:36;98533.63;;;14.36;80.54
11912;BME280;6016;41.928;25.556;2023-02-27T01:31:03;98558.38;;;14.52;80.27
11912;BME280;6016;41.928;25.556;2023-02-27T01:33:30;98555.38;;;14.55;80.51
11912;BME280;6016;41.928;25.556;2023-02-27T01:35:57;98507.09;;;14.36;80.29
11912;BME280;6016;41.928;25.556;2023-02-27T01:38:25;98525.78;;;14.43;80.01
11912;BME280;6016;41.928;25.556;2023-02-27T01:40:52;98559.25;;;14.67;79.76
11912;BME280;6016;41.928;25.556;2023-02-27T01:43:20;98556.59;;;14.67;79.81
11912;BME280;6016;41.928;25.556;2023-02-27T01:45:48;98553.94;;;14.67;79.34
11912;BME280;6016;41.928;25.556;2023-02-27T01:48:17;98547.84;;;14.58;80.04
11912;BME280;6016;41.928;25.556;2023-02-27T01:50:51;98550.19;;;14.61;79.75
11912;BME280;6016;41.928;25.556;2023-02-27T01:53:19;98562.13;;;14.57;79.96
11912;BME280;6016;41.928;25.556;2023-02-27T01:55:52;98540.09;;;14.57;80.15
11912;BME280;6016;41.928;25.556;2023-02-27T01:58:21;98536.81;;;14.31;80.85
11912;BME280;6016;41.928;25.556;2023-02-27T02:00:48;98411.22;;;13.62;80.84
11912;BME280;6016;41.928;25.556;2023-02-27T02:03:20;98559.63;;;14.41;80.72
11912;BME280;6016;41.928;25.556;2023-02-27T02:05:48;98533.56;;;14.21;80.95
11912;BME280;6016;41.928;25.556;2023-02-27T02:08:17;98522.69;;;14.16;80.54
11912;BME280;6016;41.928;25.556;2023-02-27T02:10:46;98559.69;;;14.56;80.45
11912;BME280;6016;41.928;25.556;2023-02-27T02:13:15;98568.66;;;14.55;80.02
11912;BME280;6016;41.928;25.556;2023-02-27T02:15:47;98561.44;;;14.40;80.75
11912;BME280;6016;41.928;25.556;2023-02-27T02:18:21;98563.50;;;14.53;79.85
11912;BME280;6016;41.928;25.556;2023-02-27T02:21:06;98564.22;;;14.47;80.57
11912;BME280;6016;41.928;25.556;2023-02-27T02:26:59;98542.34;;;14.45;80.46
11912;BME280;6016;41.928;25.556;2023-02-27T02:29:55;98516.31;;;14.25;80.55
11912;BME280;6016;41.928;25.556;2023-02-27T02:33:03;98545.81;;;14.45;80.42
11912;BME280;6016;41.928;25.556;2023-02-27T02:39:01;98570.72;;;14.44;79.91
11912;BME280;6016;41.928;25.556;2023-02-27T02:41:44;98490.88;;;13.92;78.52
11912;BME280;6016;41.928;25.556;2023-02-27T02:44:21;98590.03;;;14.53;79.29
11912;BME280;6016;41.928;25.556;2023-02-27T02:46:56;98531.75;;;14.21;79.59
11912;BME280;6016;41.928;25.556;2023-02-27T02:49:30;98606.50;;;14.48;79.78
11912;BME280;6016;41.928;25.556;2023-02-27T02:51:59;98607.97;;;14.51;79.54
11912;BME280;6016;41.928;25.556;2023-02-27T02:54:35;98605.03;;;14.46;79.44
11912;BME280;6016;41.928;25.556;2023-02-27T02:57:05;98608.69;;;14.45;79.32
11912;BME280;6016;41.928;25.556;2023-02-27T02:59:35;98598.00;;;14.53;79.41
11912;BME280;6016;41.928;25.556;2023-02-27T03:02:08;98562.28;;;14.41;79.00
11912;BME280;6016;41.928;25.556;2023-02-27T03:04:39;98581.72;;;14.56;79.03
11912;BME280;6016;41.928;25.556;2023-02-27T03:07:13;98541.41;;;14.38;78.85
11912;BME280;6016;41.928;25.556;2023-02-27T03:09:44;98536.16;;;14.29;78.96
11912;BME280;6016;41.928;25.556;2023-02-27T03:12:15;98586.28;;;14.47;79.32
11912;BME280;6016;41.928;25.556;2023-02-27T03:14:47;98580.81;;;14.49;79.51
11912;BME280;6016;41.928;25.556;2023-02-27T03:17:25;98598.13;;;14.60;78.95
11912;BME280;6016;41.928;25.556;2023-02-27T03:19:57;98618.75;;;14.49;79.34
11912;BME280;6016;41.928;25.556;2023-02-27T03:22:29;98608.09;;;14.58;78.23
11912;BME280;6016;41.928;25.556;2023-02-27T03:25:00;98614.56;;;14.55;78.60
11912;BME280;6016;41.928;25.556;2023-02-27T03:27:31;98520.78;;;14.01;78.99
11912;BME280;6016;41.928;25.556;2023-02-27T03:30:02;98587.28;;;14.46;78.41
11912;BME280;6016;41.928;25.556;2023-02-27T03:32:48;98616.28;;;14.71;78.09
11912;BME280;6016;41.928;25.556;2023-02-27T03:35:21;98592.59;;;14.46;78.59
11912;BME280;6016;41.928;25.556;2023-02-27T03:37:57;98616.41;;;14.55;78.42
11912;BME280;6016;41.928;25.556;2023-02-27T03:40:32;98588.66;;;14.42;78.65
11912;BME280;6016;41.928;25.556;2023-02-27T03:43:05;98564.88;;;14.26;78.12
11912;BME280;6016;41.928;25.556;2023-02-27T03:45:41;98621.63;;;14.48;79.08
11912;BME280;6016;41.928;25.556;2023-02-27T03:48:10;98620.53;;;14.57;78.45
11912;BME280;6016;41.928;25.556;2023-02-27T03:50:37;98628.44;;;14.66;78.05
11912;BME280;6016;41.928;25.556;2023-02-27T03:53:10;98630.09;;;14.67;78.37
11912;BME280;6016;41.928;25.556;2023-02-27T03:55:43;98629.81;;;14.61;78.03
11912;BME280;6016;41.928;25.556;2023-02-27T03:58:11;98618.25;;;14.54;78.19
11912;BME280;6016;41.928;25.556;2023-02-27T04:00:38;98627.84;;;14.55;77.87
11912;BME280;6016;41.928;25.556;2023-02-27T04:03:05;98659.00;;;14.61;78.42
11912;BME280;6016;41.928;25.556;2023-02-27T04:05:32;98655.69;;;14.59;78.73
11912;BME280;6016;41.928;25.556;2023-02-27T04:08:11;98652.75;;;14.54;78.95
11912;BME280;6016;41.928;25.556;2023-02-27T04:11:16;98514.28;;;13.49;79.47
11912;BME280;6016;41.928;25.556;2023-02-27T04:13:52;98676.78;;;14.53;79.60
11912;BME280;6016;41.928;25.556;2023-02-27T04:16:46;98676.97;;;14.51;79.66
11912;BME280;6016;41.928;25.556;2023-02-27T04:19:35;98687.16;;;14.39;79.60
11912;BME280;6016;41.928;25.556;2023-02-27T04:22:13;98691.00;;;14.37;80.59
11912;BME280;6016;41.928;25.556;2023-02-27T04:24:51;98696.59;;;14.42;80.08
11912;BME280;6016;41.928;25.556;2023-02-27T04:27:31;98682.56;;;14.33;79.75
11912;BME280;6016;41.928;25.556;2023-02-27T04:30:09;98702.53;;;14.52;79.77
11912;BME280;6016;41.928;25.556;2023-02-27T04:32:42;98709.09;;;14.33;81.37
11912;BME280;6016;41.928;25.556;2023-02-27T04:35:16;98717.34;;;14.38;81.57
11912;BME280;6016;41.928;25.556;2023-02-27T04:37:48;98726.97;;;14.39;81.64
11912;BME280;6016;41.928;25.556;2023-02-27T04:40:18;98666.63;;;14.10;81.24
11912;BME280;6016;41.928;25.556;2023-02-27T04:42:50;98746.38;;;14.40;81.90
11912;BME280;6016;41.928;25.556;2023-02-27T04:45:19;98751.53;;;14.41;81.91
11912;BME280;6016;41.928;25.556;2023-02-27T04:47:51;98605.91;;;13.27;82.63
11912;BME280;6016;41.928;25.556;2023-02-27T04:50:23;98768.47;;;14.32;82.52
11912;BME280;6016;41.928;25.556;2023-02-27T04:52:55;98728.28;;;14.03;82.42
11912;BME280;6016;41.928;25.556;2023-02-27T04:55:26;98775.22;;;14.34;81.84
11912;BME280;6016;41.928;25.556;2023-02-27T04:57:58;98756.78;;;14.10;81.37
11912;BME280;6016;41.928;25.556;2023-02-27T05:00:29;98771.34;;;14.22;82.02
11912;BME280;6016;41.928;25.556;2023-02-27T05:03:00;98708.44;;;13.91;81.06
11912;BME280;6016;41.928;25.556;2023-02-27T05:05:31;98792.78;;;14.44;81.10
11912;BME280;6016;41.928;25.556;2023-02-27T05:08:02;98801.47;;;14.29;81.63
11912;BME280;6016;41.928;25.556;2023-02-27T05:10:36;98736.63;;;13.84;81.67
11912;BME280;6016;41.928;25.556;2023-02-27T05:13:09;98809.72;;;14.43;80.58
11912;BME280;6016;41.928;25.556;2023-02-27T05:16:04;98814.28;;;14.57;80.21
11912;BME280;6016;41.928;25.556;2023-02-27T05:18:39;98169.66;;;10.56;79.52
11912;BME280;6016;41.928;25.556;2023-02-27T05:21:14;98796.13;;;14.38;79.85
11912;BME280;6016;41.928;25.556;2023-02-27T05:23:53;98771.66;;;14.19;80.15
11912;BME280;6016;41.928;25.556;2023-02-27T05:26:26;98832.72;;;14.59;79.67
11912;BME280;6016;41.928;25.556;2023-02-27T05:29:03;98751.78;;;14.15;78.59
11912;BME280;6016;41.928;25.556;2023-02-27T05:31:35;98826.56;;;14.58;78.94
11912;BME280;6016;41.928;25.556;2023-02-27T05:34:07;98830.88;;;14.59;78.74
11912;BME280;6016;41.928;25.556;2023-02-27T05:36:37;98838.53;;;14.54;79.14
11912;BME280;6016;41.928;25.556;2023-02-27T05:39:07;98821.78;;;14.54;77.66
11912;BME280;6016;41.928;25.556;2023-02-27T05:41:38;98851.00;;;14.45;77.62
11912;BME280;6016;41.928;25.556;2023-02-27T05:44:11;98869.84;;;14.67;77.31
11912;BME280;6016;41.928;25.556;2023-02-27T05:46:43;98879.47;;;14.68;77.33
11912;BME280;6016;41.928;25.556;2023-02-27T05:49:14;98879.34;;;14.53;76.88
11912;BME280;6016;41.928;25.556;2023-02-27T05:51:45;98887.41;;;14.76;76.57
11912;BME280;6016;41.928;25.556;2023-02-27T05:54:18;98866.16;;;14.76;76.07
11912;BME280;6016;41.928;25.556;2023-02-27T05:56:48;98880.16;;;15.02;74.85
11912;BME280;6016;41.928;25.556;2023-02-27T05:59:26;98900.44;;;14.95;75.13
11912;BME280;6016;41.928;25.556;2023-02-27T06:01:54;98917.03;;;14.97;75.09
11912;BME280;6016;41.928;25.556;2023-02-27T06:04:22;98935.47;;;14.98;74.75
11912;BME280;6016;41.928;25.556;2023-02-27T06:06:49;98930.44;;;15.03;74.17
11912;BME280;6016;41.928;25.556;2023-02-27T06:09:15;98958.41;;;15.23;73.77
11912;BME280;6016;41.928;25.556;2023-02-27T06:11:50;98973.41;;;15.24;73.83
11912;BME280;6016;41.928;25.556;2023-02-27T06:14:22;99027.31;;;15.32;72.87
11912;BME280;6016;41.928;25.556;2023-02-27T06:16:48;98997.09;;;14.85;62.96
11912;BME280;6016;41.928;25.556;2023-02-27T06:19:17;98984.50;;;14.62;63.21
11912;BME280;6016;41.928;25.556;2023-02-27T06:21:43;99010.53;;;14.75;62.41
11912;BME280;6016;41.928;25.556;2023-02-27T06:24:10;99010.56;;;14.67;62.41
11912;BME280;6016;41.928;25.556;2023-02-27T06:26:37;99001.94;;;14.48;62.60
11912;BME280;6016;41.928;25.556;2023-02-27T06:29:04;99019.69;;;14.48;62.70
11912;BME280;6016;41.928;25.556;2023-02-27T06:31:32;99009.41;;;14.45;63.21
11912;BME280;6016;41.928;25.556;2023-02-27T06:33:59;99021.16;;;14.51;62.59
11912;BME280;6016;41.928;25.556;2023-02-27T06:36:25;98986.72;;;14.17;62.53
11912;BME280;6016;41.928;25.556;2023-02-27T06:38:54;98810.97;;;12.91;62.99
11912;BME280;6016;41.928;25.556;2023-02-27T06:41:22;99021.50;;;14.39;64.22
11912;BME280;6016;41.928;25.556;2023-02-27T06:43:49;99015.56;;;14.54;62.88
11912;BME280;6016;41.928;25.556;2023-02-27T06:46:16;99024.47;;;14.61;62.46
11912;BME280;6016;41.928;25.556;2023-02-27T06:48:44;98959.63;;;14.55;63.82
11912;BME280;6016;41.928;25.556;2023-02-27T06:51:11;98997.41;;;14.90;62.55
11912;BME280;6016;41.928;25.556;2023-02-27T06:53:37;99017.28;;;15.11;62.05
11912;BME280;6016;41.928;25.556;2023-02-27T06:56:05;99006.59;;;15.28;61.76
11912;BME280;6016;41.928;25.556;2023-02-27T06:58:32;98990.56;;;15.04;60.71
11912;BME280;6016;41.928;25.556;2023-02-27T07:00:59;98994.94;;;15.60;60.43
11912;BME280;6016;41.928;25.556;2023-02-27T07:03:26;98958.56;;;15.84;59.42
11912;BME280;6016;41.928;25.556;2023-02-27T07:05:55;98981.81;;;16.14;59.18
11912;BME280;6016;41.928;25.556;2023-02-27T07:08:22;98994.44;;;16.35;57.92
11912;BME280;6016;41.928;25.556;2023-02-27T07:10:49;98992.25;;;16.39;57.08
11912;BME280;6016;41.928;25.556;2023-02-27T07:13:16;99002.72;;;16.40;58.02
11912;BME280;6016;41.928;25.556;2023-02-27T07:15:43;99001.63;;;16.50;56.84
11912;BME280;6016;41.928;25.556;2023-02-27T07:18:10;98998.91;;;16.58;57.01
11912;BME280;6016;41.928;25.556;2023-02-27T07:20:40;99001.38;;;16.59;56.08
11912;BME280;6016;41.928;25.556;2023-02-27T07:23:08;98967.84;;;16.35;58.03
11912;BME280;6016;41.928;25.556;2023-02-27T07:25:36;98979.25;;;16.74;56.90
11912;BME280;6016;41.928;25.556;2023-02-27T07:28:05;98983.78;;;16.88;57.58
11912;BME280;6016;41.928;25.556;2023-02-27T07:30:32;98982.22;;;16.94;55.45
11912;BME280;6016;41.928;25.556;2023-02-27T07:32:59;98956.84;;;16.83;55.81
11912;BME280;6016;41.928;25.556;2023-02-27T07:35:29;98976.59;;;16.74;55.79
11912;BME280;6016;41.928;25.556;2023-02-27T07:37:55;98982.13;;;16.87;56.52
11912;BME280;6016;41.928;25.556;2023-02-27T07:40:31;98983.44;;;17.07;54.51
11912;BME280;6016;41.928;25.556;2023-02-27T07:42:58;98968.78;;;17.33;55.87
11912;BME280;6016;41.928;25.556;2023-02-27T07:45:24;98974.75;;;17.93;53.06
11912;BME280;6016;41.928;25.556;2023-02-27T07:47:51;98968.75;;;18.35;51.68
11912;BME280;6016;41.928;25.556;2023-02-27T07:50:21;98940.28;;;18.42;52.53
11912;BME280;6016;41.928;25.556;2023-02-27T07:52:50;98941.97;;;18.85;51.00
11912;BME280;6016;41.928;25.556;2023-02-27T07:55:24;98977.41;;;19.43;48.49
11912;BME280;6016;41.928;25.556;2023-02-27T07:57:53;98966.97;;;19.68;49.43
11912;BME280;6016;41.928;25.556;2023-02-27T08:00:19;98923.13;;;19.76;49.80
11912;BME280;6016;41.928;25.556;2023-02-27T08:02:49;98972.63;;;20.20;46.80
11912;BME280;6016;41.928;25.556;2023-02-27T08:05:16;98978.19;;;20.26;47.40
11912;BME280;6016;41.928;25.556;2023-02-27T08:07:43;98951.59;;;19.97;47.73
11912;BME280;6016;41.928;25.556;2023-02-27T08:10:10;98974.66;;;19.91;49.63
11912;BME280;6016;41.928;25.556;2023-02-27T08:12:38;98983.94;;;19.95;50.22
11912;BME280;6016;41.928;25.556;2023-02-27T08:15:08;98995.91;;;20.13;50.76
11912;BME280;6016;41.928;25.556;2023-02-27T08:17:35;98999.59;;;20.26;48.37
11912;BME280;6016;41.928;25.556;2023-02-27T08:20:02;99003.53;;;20.23;49.67
11912;BME280;6016;41.928;25.556;2023-02-27T08:22:34;98964.28;;;19.68;50.44
11912;BME280;6016;41.928;25.556;2023-02-27T08:25:01;99005.72;;;19.86;51.51
11912;BME280;6016;41.928;25.556;2023-02-27T08:27:30;98944.69;;;19.40;51.71
11912;BME280;6016;41.928;25.556;2023-02-27T08:29:57;99002.97;;;19.59;52.48
11912;BME280;6016;41.928;25.556;2023-02-27T08:32:25;98988.88;;;19.30;53.78
11912;BME280;6016;41.928;25.556;2023-02-27T08:34:52;98991.91;;;18.84;56.27
11912;BME280;6016;41.928;25.556;2023-02-27T08:37:19;98998.88;;;18.79;56.53
11912;BME280;6016;41.928;25.556;2023-02-27T08:39:46;98999.88;;;18.78;57.56
11912;BME280;6016;41.928;25.556;2023-02-27T08:42:12;99000.72;;;18.78;58.72
11912;BME280;6016;41.928;25.556;2023-02-27T08:44:40;99012.00;;;18.74;59.37
11912;BME280;6016;41.928;25.556;2023-02-27T08:47:07;98977.03;;;18.40;61.06
11912;BME280;6016;41.928;25.556;2023-02-27T08:49:35;99003.00;;;18.53;61.08
11912;BME280;6016;41.928;25.556;2023-02-27T08:52:02;99010.03;;;18.32;61.94
11912;BME280;6016;41.928;25.556;2023-02-27T08:54:29;98985.31;;;18.23;62.60
11912;BME280;6016;41.928;25.556;2023-02-27T08:56:56;98938.63;;;18.12;60.37
11912;BME280;6016;41.928;25.556;2023-02-27T08:59:23;99016.91;;;18.70;60.48
11912;BME280;6016;41.928;25.556;2023-02-27T09:01:50;99015.69;;;18.73;60.55
11912;BME280;6016;41.928;25.556;2023-02-27T09:04:17;99017.03;;;18.62;61.87
11912;BME280;6016;41.928;25.556;2023-02-27T09:06:48;98979.75;;;18.47;61.27
11912;BME280;6016;41.928;25.556;2023-02-27T09:09:15;99011.66;;;18.83;60.28
11912;BME280;6016;41.928;25.556;2023-02-27T09:11:42;99021.34;;;18.91;59.49
11912;BME280;6016;41.928;25.556;2023-02-27T09:14:11;99026.94;;;18.96;59.49
11912;BME280;6016;41.928;25.556;2023-02-27T09:16:38;99001.53;;;18.79;59.10
11912;BME280;6016;41.928;25.556;2023-02-27T09:19:06;99014.22;;;18.98;59.79
11912;BME280;6016;41.928;25.556;2023-02-27T09:21:33;99035.91;;;18.89;58.83
11912;BME280;6016;41.928;25.556;2023-02-27T09:24:03;98984.69;;;18.21;59.68
11912;BME280;6016;41.928;25.556;2023-02-27T09:26:30;98949.28;;;18.12;59.97
11912;BME280;6016;41.928;25.556;2023-02-27T09:28:57;98837.81;;;17.64;59.67
11912;BME280;6016;41.928;25.556;2023-02-27T09:31:24;99014.09;;;18.78;60.46
11912;BME280;6016;41.928;25.556;2023-02-27T09:33:50;98957.06;;;18.64;60.27
11912;BME280;6016;41.928;25.556;2023-02-27T09:36:17;99016.47;;;19.30;59.56
11912;BME280;6016;41.928;25.556;2023-02-27T09:38:44;98998.22;;;19.05;59.64
11912;BME280;6016;41.928;25.556;2023-02-27T09:41:36;98993.72;;;19.12;59.95
11912;BME280;6016;41.928;25.556;2023-02-27T09:44:24;99001.59;;;19.21;59.68
11912;BME280;6016;41.928;25.556;2023-02-27T09:46:52;99007.88;;;19.00;60.07
11912;BME280;6016;41.928;25.556;2023-02-27T09:49:22;99011.81;;;19.10;60.70
11912;BME280;6016;41.928;25.556;2023-02-27T09:51:51;98985.56;;;18.92;60.72
11912;BME280;6016;41.928;25.556;2023-02-27T09:54:18;98964.63;;;18.96;60.03
11912;BME280;6016;41.928;25.556;2023-02-27T09:56:53;98975.41;;;19.09;59.34
11912;BME280;6016;41.928;25.556;2023-02-27T09:59:29;99001.47;;;19.36;58.90
11912;BME280;6016;41.928;25.556;2023-02-27T10:02:07;99027.84;;;19.46;58.06
11912;BME280;6016;41.928;25.556;2023-02-27T10:04:45;98978.25;;;19.01;58.57
11912;BME280;6016;41.928;25.556;2023-02-27T10:07:19;99014.19;;;19.34;58.76
11912;BME280;6016;41.928;25.556;2023-02-27T10:09:58;99019.13;;;19.30;58.37
11912;BME280;6016;41.928;25.556;2023-02-27T10:12:53;99023.25;;;19.39;58.28
11912;BME280;6016;41.928;25.556;2023-02-27T10:15:27;99000.75;;;19.20;59.18
11912;BME280;6016;41.928;25.556;2023-02-27T10:17:59;98975.94;;;19.33;57.30
11912;BME280;6016;41.928;25.556;2023-02-27T10:20:30;99017.78;;;19.54;57.64
11912;BME280;6016;41.928;25.556;2023-02-27T10:23:02;98988.25;;;19.28;57.34
11912;BME280;6016;41.928;25.556;2023-02-27T10:25:33;99009.44;;;19.85;55.36
11912;BME280;6016;41.928;25.556;2023-02-27T10:28:11;99010.03;;;19.80;55.59
11912;BME280;6016;41.928;25.556;2023-02-27T10:30:39;99013.88;;;19.50;56.17
11912;BME280;6016;41.928;25.556;2023-02-27T10:33:13;99005.50;;;19.25;56.27
11912;BME280;6016;41.928;25.556;2023-02-27T10:35:44;98960.22;;;18.46;57.72
11912;BME280;6016;41.928;25.556;2023-02-27T10:38:13;99013.94;;;18.93;57.94
11912;BME280;6016;41.928;25.556;2023-02-27T10:40:42;98959.94;;;18.69;56.87
11912;BME280;6016;41.928;25.556;2023-02-27T10:43:14;99015.97;;;19.13;56.86
11912;BME280;6016;41.928;25.556;2023-02-27T10:45:42;98979.91;;;19.02;56.37
11912;BME280;6016;41.928;25.556;2023-02-27T10:48:10;99010.78;;;19.11;56.77
11912;BME280;6016;41.928;25.556;2023-02-27T10:50:40;98944.44;;;18.87;56.86
11912;BME280;6016;41.928;25.556;2023-02-27T10:53:17;99014.59;;;19.31;56.44
11912;BME280;6016;41.928;25.556;2023-02-27T10:55:47;99008.16;;;19.18;55.88
11912;BME280;6016;41.928;25.556;2023-02-27T10:58:24;99013.78;;;19.30;55.08
11912;BME280;6016;41.928;25.556;2023-02-27T11:00:53;98995.06;;;19.30;56.19
11912;BME280;6016;41.928;25.556;2023-02-27T11:03:23;98996.78;;;19.51;54.10
11912;BME280;6016;41.928;25.556;2023-02-27T11:05:55;98987.34;;;19.69;54.01
11912;BME280;6016;41.928;25.556;2023-02-27T11:08:24;98942.84;;;19.48;53.38
11912;BME280;6016;41.928;25.556;2023-02-27T11:10:58;98937.66;;;19.39;53.24
11912;BME280;6016;41.928;25.556;2023-02-27T11:13:28;98921.81;;;19.24;54.61
11912;BME280;6016;41.928;25.556;2023-02-27T11:16:07;98968.22;;;19.72;54.58
11912;BME280;6016;41.928;25.556;2023-02-27T11:18:36;98905.78;;;19.31;53.84
11912;BME280;6016;41.928;25.556;2023-02-27T11:21:12;98966.69;;;19.36;55.62
11912;BME280;6016;41.928;25.556;2023-02-27T11:23:49;98974.78;;;19.63;55.06
11912;BME280;6016;41.928;25.556;2023-02-27T11:26:19;98960.06;;;19.32;56.12
11912;BME280;6016;41.928;25.556;2023-02-27T11:29:03;98941.34;;;19.32;55.40
11912;BME280;6016;41.928;25.556;2023-02-27T11:31:31;98968.16;;;19.52;55.64
11912;BME280;6016;41.928;25.556;2023-02-27T11:33:59;98965.47;;;19.52;55.08
11912;BME280;6016;41.928;25.556;2023-02-27T11:36:38;98930.59;;;19.11;55.94
11912;BME280;6016;41.928;25.556;2023-02-27T11:39:05;98975.06;;;19.26;56.13
11912;BME280;6016;41.928;25.556;2023-02-27T11:41:33;98966.28;;;19.39;55.57
11912;BME280;6016;41.928;25.556;2023-02-27T11:44:02;98958.25;;;19.39;55.72
11912;BME280;6016;41.928;25.556;2023-02-27T11:46:30;98910.06;;;19.19;54.29
11912;BME280;6016;41.928;25.556;2023-02-27T11:49:02;98963.25;;;19.69;53.88
11912;BME280;6016;41.928;25.556;2023-02-27T11:51:45;98987.97;;;19.71;54.04
11912;BME280;6016;41.928;25.556;2023-02-27T11:54:29;98933.53;;;19.23;54.65
11912;BME280;6016;41.928;25.556;2023-02-27T11:57:00;98902.03;;;18.77;55.77
11912;BME280;6016;41.928;25.556;2023-02-27T11:59:39;98920.69;;;19.05;53.92
11912;BME280;6016;41.928;25.556;2023-02-27T12:02:14;98966.31;;;19.46;55.41
11912;BME280;6016;41.928;25.556;2023-02-27T12:04:47;98968.00;;;19.74;52.29
11912;BME280;6016;41.928;25.556;2023-02-27T12:07:17;98969.47;;;19.76;51.87
11912;BME280;6016;41.928;25.556;2023-02-27T12:09:50;98879.56;;;19.00;52.56
11912;BME280;6016;41.928;25.556;2023-02-27T12:12:22;98974.75;;;19.43;53.09
11912;BME280;6016;41.928;25.556;2023-02-27T12:14:58;98969.38;;;19.43;53.01
11912;BME280;6016;41.928;25.556;2023-02-27T12:17:32;98999.00;;;19.41;53.09
11912;BME280;6016;41.928;25.556;2023-02-27T12:20:17;98968.97;;;19.46;53.07
11912;BME280;6016;41.928;25.556;2023-02-27T12:22:48;98983.72;;;19.21;53.07
11912;BME280;6016;41.928;25.556;2023-02-27T12:28:20;98988.03;;;19.22;52.30
11912;BME280;6016;41.928;25.556;2023-02-27T12:31:03;98906.63;;;18.90;52.47
11912;BME280;6016;41.928;25.556;2023-02-27T12:33:36;98986.94;;;19.10;53.15
11912;BME280;6016;41.928;25.556;2023-02-27T12:36:09;98966.19;;;19.12;50.70
11912;BME280;6016;41.928;25.556;2023-02-27T12:38:36;98981.72;;;19.37;51.70
11912;BME280;6016;41.928;25.556;2023-02-27T12:44:19;98986.06;;;19.51;51.44
11912;BME280;6016;41.928;25.556;2023-02-27T12:46:56;98987.28;;;19.42;51.44
11912;BME280;6016;41.928;25.556;2023-02-27T12:49:35;98901.06;;;18.91;50.81
11912;BME280;6016;41.928;25.556;2023-02-27T12:52:12;98908.41;;;19.18;51.05
11912;BME280;6016;41.928;25.556;2023-02-27T12:54:49;98973.16;;;19.68;51.09
11912;BME280;6016;41.928;25.556;2023-02-27T12:57:28;98980.94;;;19.57;51.24
11912;BME280;6016;41.928;25.556;2023-02-27T13:00:12;98981.41;;;19.80;50.85
11912;BME280;6016;41.928;25.556;2023-02-27T13:02:53;98961.00;;;19.73;50.91
11912;BME280;6016;41.928;25.556;2023-02-27T13:05:28;98948.25;;;19.75;51.41
11912;BME280;6016;41.928;25.556;2023-02-27T13:08:03;98985.94;;;19.80;51.32
11912;BME280;6016;41.928;25.556;2023-02-27T13:10:37;98970.44;;;19.55;51.18
11912;BME280;6016;41.928;25.556;2023-02-27T13:13:12;98964.16;;;19.21;52.02
11912;BME280;6016;41.928;25.556;2023-02-27T13:15:45;98961.41;;;19.01;52.69
11912;BME280;6016;41.928;25.556;2023-02-27T13:18:29;99002.44;;;19.21;53.68
11912;BME280;6016;41.928;25.556;2023-02-27T13:21:00;98988.00;;;19.16;53.66
11912;BME280;6016;41.928;25.556;2023-02-27T13:23:36;98991.25;;;19.04;52.91
11912;BME280;6016;41.928;25.556;2023-02-27T13:26:06;99006.34;;;19.25;53.50
11912;BME280;6016;41.928;25.556;2023-02-27T13:28:36;99006.25;;;19.05;53.82
11912;BME280;6016;41.928;25.556;2023-02-27T13:31:05;99004.72;;;19.24;53.33
11912;BME280;6016;41.928;25.556;2023-02-27T13:33:39;98992.72;;;19.20;53.51